Time;durP1;ratioP1;P1;durP2;ratioP2;P2;SDS_P1;SDS_P2;PMS_P1;PMS_P2;Temp;Humidity;BMP_temperature;BMP_pressure;BME280_temperature;BME280_humidity;BME280_pressure;Samples;Min_cycle;Max_cycle;Signal;HPM_P1;HPM_P2
2023/09/09 00:01:07;;;;;;;9.27;6.82;;;21.50;99.90;;;;;;5012689;28;20256;-72
2023/09/09 00:03:32;;;;;;;10.55;7.25;;;21.40;99.90;;;;;;5013363;28;20639;-73
2023/09/09 00:05:58;;;;;;;9.80;7.13;;;21.50;99.90;;;;;;5012341;28;20630;-73
2023/09/09 00:08:24;;;;;;;8.98;7.15;;;21.40;99.90;;;;;;5011605;28;20215;-73
2023/09/09 00:10:49;;;;;;;9.27;6.68;;;21.40;99.90;;;;;;5027646;28;20461;-74
2023/09/09 00:13:16;;;;;;;10.10;8.35;;;21.40;99.90;;;;;;5013636;28;20745;-72
2023/09/09 00:15:41;;;;;;;8.32;6.65;;;21.40;99.90;;;;;;5020396;28;20177;-73
2023/09/09 00:18:07;;;;;;;12.00;9.32;;;21.30;99.90;;;;;;5016556;28;20889;-73
2023/09/09 00:20:35;;;;;;;11.38;7.75;;;21.30;99.90;;;;;;5017529;28;20213;-73
2023/09/09 00:23:08;;;;;;;10.95;7.53;;;21.30;99.90;;;;;;5017144;28;20215;-74
2023/09/09 00:25:43;;;;;;;9.85;7.75;;;21.30;99.90;;;;;;5014901;28;20201;-73
2023/09/09 00:28:12;;;;;;;11.15;7.70;;;21.30;99.90;;;;;;5011027;28;20184;-73
2023/09/09 00:30:38;;;;;;;16.63;8.52;;;21.30;99.90;;;;;;5013967;28;20173;-73
2023/09/09 00:33:04;;;;;;;13.02;8.10;;;21.30;99.90;;;;;;5012121;28;20220;-73
2023/09/09 00:35:32;;;;;;;15.32;7.50;;;21.30;99.90;;;;;;5013632;28;20209;-72
2023/09/09 00:37:58;;;;;;;9.60;6.90;;;21.20;99.90;;;;;;5012723;28;20726;-73
2023/09/09 00:40:24;;;;;;;9.75;7.20;;;21.20;99.90;;;;;;5010802;28;20212;-73
2023/09/09 00:42:50;;;;;;;10.80;7.97;;;21.20;99.90;;;;;;5011370;28;20196;-74
2023/09/09 00:45:16;;;;;;;9.27;7.10;;;21.20;99.90;;;;;;5030831;28;20204;-73
2023/09/09 00:47:42;;;;;;;8.90;7.10;;;21.10;99.90;;;;;;5030328;28;20215;-73
2023/09/09 00:50:11;;;;;;;9.18;7.15;;;21.20;99.90;;;;;;5030310;28;20211;-72
2023/09/09 00:52:42;;;;;;;10.73;6.43;;;21.10;99.90;;;;;;5030075;28;20720;-73
2023/09/09 00:55:10;;;;;;;10.85;7.07;;;21.10;99.90;;;;;;5029019;28;20180;-73
2023/09/09 00:57:36;;;;;;;10.10;7.55;;;21.00;99.90;;;;;;5030699;28;20169;-73
2023/09/09 01:00:09;;;;;;;12.07;7.47;;;21.00;99.90;;;;;;5029952;28;20285;-72
2023/09/09 01:02:35;;;;;;;9.73;7.15;;;21.00;99.90;;;;;;5029986;28;20208;-72
2023/09/09 01:05:00;;;;;;;11.77;7.90;;;21.00;99.90;;;;;;5030277;28;20211;-72
2023/09/09 01:07:27;;;;;;;12.65;8.07;;;20.90;99.90;;;;;;5028597;28;20205;-73
2023/09/09 01:09:53;;;;;;;10.80;7.78;;;20.90;99.90;;;;;;5029722;28;20654;-73
2023/09/09 01:12:22;;;;;;;9.75;7.80;;;20.80;99.90;;;;;;5030497;28;20196;-73
2023/09/09 01:14:48;;;;;;;13.32;7.90;;;20.80;99.90;;;;;;5029811;28;20290;-72
2023/09/09 01:17:14;;;;;;;8.60;7.35;;;20.70;99.90;;;;;;5030212;28;20258;-73
2023/09/09 01:19:40;;;;;;;10.02;7.72;;;20.80;99.90;;;;;;5029644;28;20303;-73
2023/09/09 01:22:11;;;;;;;9.55;7.72;;;20.70;99.90;;;;;;5030627;28;20338;-73
2023/09/09 01:24:38;;;;;;;13.23;8.52;;;20.80;99.90;;;;;;5034599;28;20185;-73
2023/09/09 01:27:04;;;;;;;14.07;8.80;;;20.70;99.90;;;;;;5034188;28;20279;-73
2023/09/09 01:29:30;;;;;;;13.80;7.97;;;20.70;99.90;;;;;;5032565;28;20235;-72
2023/09/09 01:31:55;;;;;;;11.30;7.35;;;20.70;99.90;;;;;;5033792;28;20204;-73
2023/09/09 01:34:21;;;;;;;11.30;7.97;;;20.60;99.90;;;;;;5033875;28;20207;-73
2023/09/09 01:36:47;;;;;;;12.07;8.02;;;20.60;99.90;;;;;;5032763;28;20203;-72
2023/09/09 01:39:13;;;;;;;11.88;8.77;;;20.60;99.90;;;;;;5033792;28;20291;-72
2023/09/09 01:41:38;;;;;;;9.90;7.82;;;20.50;99.90;;;;;;5033495;28;20324;-72
2023/09/09 01:44:04;;;;;;;12.93;8.07;;;20.60;99.90;;;;;;5032346;28;20200;-72
2023/09/09 01:46:30;;;;;;;10.70;7.45;;;20.60;99.90;;;;;;5033853;28;20267;-72
2023/09/09 01:48:57;;;;;;;11.32;7.75;;;20.60;99.90;;;;;;5033307;28;20256;-72
2023/09/09 01:51:23;;;;;;;11.07;7.85;;;20.50;99.90;;;;;;5033745;28;20194;-73
2023/09/09 01:53:48;;;;;;;12.40;7.85;;;20.50;99.90;;;;;;5033007;28;20220;-72
2023/09/09 01:56:14;;;;;;;10.07;7.60;;;20.40;99.90;;;;;;5033778;28;20228;-72
2023/09/09 01:58:39;;;;;;;9.73;7.63;;;20.40;99.90;;;;;;5031974;28;20291;-72
2023/09/09 02:01:05;;;;;;;11.05;7.90;;;20.40;99.90;;;;;;5031947;28;20231;-71
2023/09/09 02:03:31;;;;;;;13.57;7.15;;;20.40;99.90;;;;;;5033611;28;20678;-72
2023/09/09 02:05:56;;;;;;;9.90;7.88;;;20.40;99.90;;;;;;5033608;28;20216;-72
2023/09/09 02:08:22;;;;;;;10.15;8.15;;;20.40;99.90;;;;;;5033450;28;20221;-72
2023/09/09 02:10:50;;;;;;;10.60;7.97;;;20.40;99.90;;;;;;5031371;28;20216;-73
2023/09/09 02:13:15;;;;;;;11.80;8.50;;;20.30;99.90;;;;;;5033377;28;20216;-72
2023/09/09 02:15:41;;;;;;;10.63;8.40;;;20.40;99.90;;;;;;5033764;28;20211;-73
2023/09/09 02:18:07;;;;;;;13.20;8.48;;;20.30;99.90;;;;;;5032854;28;20733;-72
2023/09/09 02:20:33;;;;;;;10.30;7.70;;;20.20;99.90;;;;;;5033058;28;20212;-73
2023/09/09 02:22:58;;;;;;;11.30;8.45;;;20.20;99.90;;;;;;5032036;28;20207;-73
2023/09/09 02:25:24;;;;;;;12.80;8.50;;;20.10;99.90;;;;;;5033353;28;20200;-73
2023/09/09 02:27:50;;;;;;;12.57;8.40;;;20.00;99.90;;;;;;5033260;28;20605;-73
2023/09/09 02:30:15;;;;;;;10.88;8.27;;;20.10;99.90;;;;;;5029474;28;20675;-73
2023/09/09 02:32:43;;;;;;;13.57;8.18;;;20.00;99.90;;;;;;5023783;28;20208;-71
2023/09/09 02:35:10;;;;;;;11.10;7.93;;;20.10;99.90;;;;;;5032162;28;20223;-73
2023/09/09 02:37:35;;;;;;;11.40;8.35;;;20.00;99.90;;;;;;5032760;28;20232;-72
2023/09/09 02:40:01;;;;;;;12.10;8.85;;;19.90;99.90;;;;;;5032041;28;20219;-72
2023/09/09 02:42:26;;;;;;;10.18;7.90;;;19.90;99.90;;;;;;5032764;28;20254;-72
2023/09/09 02:44:52;;;;;;;11.75;8.38;;;19.90;99.90;;;;;;5030791;28;20216;-72
2023/09/09 02:47:18;;;;;;;13.15;8.05;;;19.90;99.90;;;;;;5032557;28;20218;-72
2023/09/09 02:49:44;;;;;;;12.13;9.00;;;19.90;99.90;;;;;;5031810;28;20208;-72
2023/09/09 02:52:10;;;;;;;11.80;8.50;;;19.80;99.90;;;;;;5032327;28;20223;-73
2023/09/09 02:54:36;;;;;;;11.63;8.63;;;19.80;99.90;;;;;;5031951;28;20175;-74
2023/09/09 02:57:03;;;;;;;11.60;8.60;;;19.90;99.90;;;;;;5032115;28;20200;-72
2023/09/09 02:59:30;;;;;;;16.52;9.30;;;19.80;99.90;;;;;;5030300;28;20204;-72
2023/09/09 03:01:56;;;;;;;11.35;8.23;;;19.70;99.90;;;;;;5031688;28;20224;-72
2023/09/09 03:04:22;;;;;;;11.07;8.25;;;19.60;99.90;;;;;;5028573;28;20588;-72
2023/09/09 03:06:47;;;;;;;14.77;8.93;;;19.70;99.90;;;;;;5032988;28;20240;-73
2023/09/09 03:09:14;;;;;;;11.38;8.10;;;19.70;99.90;;;;;;5031939;28;20235;-72
2023/09/09 03:11:40;;;;;;;11.68;9.07;;;19.70;99.90;;;;;;5028472;28;20207;-72
2023/09/09 03:14:05;;;;;;;11.63;9.77;;;19.60;99.90;;;;;;5031703;28;20197;-70
2023/09/09 03:16:31;;;;;;;14.15;8.95;;;19.60;99.90;;;;;;5031885;28;20254;-72
2023/09/09 03:18:57;;;;;;;11.13;8.05;;;19.70;99.90;;;;;;5031017;28;20184;-72
2023/09/09 03:21:23;;;;;;;12.82;9.10;;;19.70;99.90;;;;;;5032127;28;20193;-73
2023/09/09 03:23:49;;;;;;;11.80;8.45;;;19.60;99.90;;;;;;5031209;28;20285;-73
2023/09/09 03:26:19;;;;;;;13.82;9.18;;;19.60;99.90;;;;;;5030407;28;20224;-72
2023/09/09 03:28:51;;;;;;;12.88;9.05;;;19.50;99.90;;;;;;5030080;28;20295;-71
2023/09/09 03:31:16;;;;;;;10.90;8.18;;;19.40;99.90;;;;;;5031551;28;20212;-72
2023/09/09 03:33:42;;;;;;;13.13;8.95;;;19.50;99.90;;;;;;5027042;28;20189;-72
2023/09/09 03:36:08;;;;;;;12.25;8.73;;;19.50;99.90;;;;;;5025962;28;20258;-73
2023/09/09 03:38:37;;;;;;;16.25;8.60;;;19.40;99.90;;;;;;5031380;28;20200;-73
2023/09/09 03:41:06;;;;;;;14.50;9.38;;;19.30;99.90;;;;;;5030868;28;20597;-72
2023/09/09 03:43:35;;;;;;;11.30;8.75;;;19.30;99.90;;;;;;5032051;28;20208;-72
2023/09/09 03:46:00;;;;;;;12.23;8.77;;;19.30;99.90;;;;;;5030709;28;20192;-72
2023/09/09 03:48:26;;;;;;;11.82;9.00;;;19.30;99.90;;;;;;5033260;28;20177;-72
2023/09/09 03:50:57;;;;;;;17.20;8.48;;;19.20;99.90;;;;;;5032656;28;20232;-72
2023/09/09 03:53:22;;;;;;;13.10;9.90;;;19.20;99.90;;;;;;5031539;28;20216;-73
2023/09/09 03:55:48;;;;;;;12.83;10.20;;;19.10;99.90;;;;;;5030574;28;20420;-72
2023/09/09 03:58:14;;;;;;;14.27;8.77;;;19.10;99.90;;;;;;5034072;28;20459;-72
2023/09/09 04:00:39;;;;;;;11.73;9.48;;;19.10;99.90;;;;;;5031368;28;20220;-72
2023/09/09 04:03:05;;;;;;;14.25;10.35;;;19.10;99.90;;;;;;5033858;28;20315;-71
2023/09/09 04:05:30;;;;;;;12.93;9.77;;;19.10;99.90;;;;;;5027369;28;20250;-71
2023/09/09 04:07:58;;;;;;;11.20;9.38;;;19.10;99.90;;;;;;5034154;28;20212;-73
2023/09/09 04:10:24;;;;;;;13.07;9.90;;;19.00;99.90;;;;;;5031292;28;20243;-72
2023/09/09 04:12:49;;;;;;;12.85;9.43;;;19.00;99.90;;;;;;5029817;28;20224;-73
2023/09/09 04:15:15;;;;;;;11.40;8.85;;;19.00;99.90;;;;;;5010986;28;20233;-72
2023/09/09 04:17:40;;;;;;;14.63;9.55;;;19.00;99.90;;;;;;5009468;28;20209;-72
2023/09/09 04:20:08;;;;;;;14.45;9.90;;;19.00;99.90;;;;;;5010422;28;20209;-72
2023/09/09 04:22:34;;;;;;;11.90;9.18;;;19.00;99.90;;;;;;5009627;28;20232;-73
2023/09/09 04:25:00;;;;;;;11.60;9.15;;;18.90;99.90;;;;;;5010611;28;20189;-73
2023/09/09 04:27:26;;;;;;;13.23;10.07;;;19.00;99.90;;;;;;5011588;28;20181;-72
2023/09/09 04:29:52;;;;;;;12.77;9.75;;;19.00;99.90;;;;;;5010565;28;20608;-72
2023/09/09 04:32:17;;;;;;;19.05;10.93;;;19.00;99.90;;;;;;5010671;28;20212;-72
2023/09/09 04:34:44;;;;;;;15.35;9.57;;;19.00;99.90;;;;;;5006192;28;20296;-72
2023/09/09 04:37:09;;;;;;;14.90;11.35;;;19.00;99.90;;;;;;5010513;28;20181;-73
2023/09/09 04:39:35;;;;;;;14.20;9.95;;;19.00;99.90;;;;;;5007072;28;20607;-73
2023/09/09 04:42:00;;;;;;;15.52;9.80;;;19.10;99.90;;;;;;5008701;28;20603;-73
2023/09/09 04:44:27;;;;;;;12.68;9.23;;;19.20;99.90;;;;;;5010609;28;20205;-72
2023/09/09 04:46:53;;;;;;;14.93;10.45;;;19.10;99.90;;;;;;5009955;28;20240;-73
2023/09/09 04:49:18;;;;;;;16.23;12.75;;;19.10;99.90;;;;;;5013218;28;20205;-70
2023/09/09 04:51:44;;;;;;;19.23;11.43;;;19.30;99.90;;;;;;5011058;28;20260;-72
2023/09/09 04:54:10;;;;;;;11.35;9.65;;;19.30;99.90;;;;;;5010385;28;20243;-73
2023/09/09 04:56:35;;;;;;;16.70;9.85;;;19.30;99.90;;;;;;5010669;28;20703;-73
2023/09/09 04:59:01;;;;;;;17.15;9.93;;;19.20;99.90;;;;;;5021069;28;20235;-73
2023/09/09 05:01:27;;;;;;;13.85;9.57;;;19.50;99.90;;;;;;5030077;28;20212;-72
2023/09/09 05:03:52;;;;;;;12.25;9.32;;;19.60;99.90;;;;;;5029715;28;20172;-71
2023/09/09 05:06:18;;;;;;;14.15;10.02;;;19.60;99.90;;;;;;5011217;28;20252;-73
2023/09/09 05:08:45;;;;;;;14.23;10.23;;;19.60;99.90;;;;;;5009221;28;20580;-72
2023/09/09 05:11:11;;;;;;;12.25;9.30;;;19.70;99.90;;;;;;5009250;28;20213;-72
2023/09/09 05:13:36;;;;;;;14.10;9.38;;;19.70;99.90;;;;;;5009072;28;20749;-72
2023/09/09 05:16:02;;;;;;;13.80;9.90;;;19.70;99.90;;;;;;5012947;28;20189;-72
2023/09/09 05:18:28;;;;;;;18.17;12.10;;;19.70;99.90;;;;;;5035222;28;20825;-73
2023/09/09 05:20:54;;;;;;;11.93;9.23;;;19.70;99.90;;;;;;5011523;28;20212;-70
2023/09/09 05:23:19;;;;;;;13.02;9.75;;;19.70;99.90;;;;;;5024143;28;20256;-73
2023/09/09 05:25:45;;;;;;;18.27;8.50;;;20.00;99.90;;;;;;5033714;28;20204;-73
2023/09/09 05:28:10;;;;;;;9.80;8.30;;;20.90;99.90;;;;;;5032418;28;20667;-72
2023/09/09 05:30:40;;;;;;;10.95;8.02;;;21.60;99.90;;;;;;5035201;28;20177;-73
2023/09/09 05:33:06;;;;;;;13.82;8.63;;;21.60;99.90;;;;;;5040158;28;20721;-72
2023/09/09 05:35:31;;;;;;;14.55;8.57;;;22.00;99.90;;;;;;5014584;28;20695;-72
2023/09/09 05:37:57;;;;;;;9.13;7.47;;;23.90;99.90;;;;;;5019567;28;20266;-72
2023/09/09 05:40:23;;;;;;;9.63;7.82;;;24.70;99.90;;;;;;5024029;28;20586;-71
2023/09/09 05:42:48;;;;;;;9.65;8.20;;;25.90;99.90;;;;;;5010619;28;20193;-72
2023/09/09 05:45:14;;;;;;;9.63;7.57;;;26.80;99.90;;;;;;5009940;28;20773;-72
2023/09/09 05:47:42;;;;;;;9.10;7.43;;;27.80;99.90;;;;;;5010338;28;20243;-73
2023/09/09 05:50:08;;;;;;;8.68;7.53;;;28.10;99.90;;;;;;5012855;28;20209;-72
2023/09/09 05:52:33;;;;;;;8.50;7.28;;;27.90;99.90;;;;;;5014231;28;20209;-73
2023/09/09 05:54:59;;;;;;;10.73;7.70;;;28.30;99.90;;;;;;5010011;28;20671;-72
2023/09/09 05:57:25;;;;;;;10.07;7.45;;;28.30;99.90;;;;;;5017130;28;20203;-73
2023/09/09 05:59:51;;;;;;;10.95;7.95;;;28.70;99.90;;;;;;5009839;28;20252;-72
2023/09/09 06:02:16;;;;;;;9.10;7.65;;;29.00;99.90;;;;;;5025007;28;20725;-72
2023/09/09 06:04:42;;;;;;;11.45;8.15;;;28.60;99.90;;;;;;5039699;28;20711;-72
2023/09/09 06:07:08;;;;;;;9.98;7.38;;;29.70;99.90;;;;;;5033072;28;20263;-73
2023/09/09 06:09:33;;;;;;;8.43;7.07;;;30.50;99.90;;;;;;5033737;28;20176;-71
2023/09/09 06:12:01;;;;;;;11.52;7.57;;;30.50;99.90;;;;;;5035125;28;20215;-71
2023/09/09 06:14:27;;;;;;;11.85;7.45;;;29.50;99.90;;;;;;5016087;28;20201;-71
2023/09/09 06:16:52;;;;;;;12.05;7.90;;;29.50;99.90;;;;;;5022311;28;20203;-71
2023/09/09 06:19:18;;;;;;;9.65;7.35;;;29.20;99.90;;;;;;5033378;28;20227;-69
2023/09/09 06:21:43;;;;;;;11.60;8.18;;;29.70;99.90;;;;;;5013572;28;20228;-72
2023/09/09 06:24:12;;;;;;;9.63;8.10;;;30.70;99.90;;;;;;5013077;28;20291;-71
2023/09/09 06:26:38;;;;;;;11.43;7.78;;;30.50;99.90;;;;;;5013428;28;20208;-73
2023/09/09 06:29:04;;;;;;;8.57;7.68;;;30.70;99.90;;;;;;5011512;28;20235;-71
2023/09/09 06:31:30;;;;;;;9.00;6.60;;;30.00;99.90;;;;;;5013072;28;20291;-71
2023/09/09 06:33:55;;;;;;;10.65;7.88;;;30.50;99.90;;;;;;5012771;28;20315;-72
2023/09/09 06:36:21;;;;;;;9.38;8.00;;;30.00;99.90;;;;;;5013604;28;20180;-72
2023/09/09 06:38:47;;;;;;;8.82;7.05;;;29.20;99.90;;;;;;5028770;28;20201;-72
2023/09/09 06:41:13;;;;;;;8.88;8.00;;;28.80;99.90;;;;;;5036966;28;20219;-72
2023/09/09 06:43:39;;;;;;;7.75;6.70;;;29.60;99.90;;;;;;5035006;28;20208;-72
2023/09/09 06:46:04;;;;;;;9.20;7.25;;;29.40;99.90;;;;;;5032154;28;20179;-69
2023/09/09 06:48:30;;;;;;;8.75;7.85;;;30.50;99.90;;;;;;5032474;28;20732;-72
2023/09/09 06:50:56;;;;;;;10.00;7.38;;;30.50;99.90;;;;;;5033391;28;20772;-71
2023/09/09 06:53:24;;;;;;;10.27;8.38;;;30.10;99.90;;;;;;5032844;28;20227;-72
2023/09/09 06:55:50;;;;;;;9.68;8.55;;;30.00;99.90;;;;;;5028461;28;20628;-72
2023/09/09 06:58:15;;;;;;;8.75;7.63;;;29.30;99.90;;;;;;5012466;28;20213;-71
2023/09/09 07:00:42;;;;;;;10.60;8.00;;;30.00;99.90;;;;;;5016242;28;20298;-72
2023/09/09 07:03:08;;;;;;;9.32;7.38;;;30.50;99.90;;;;;;5012227;28;20637;-72
2023/09/09 07:05:34;;;;;;;10.43;7.05;;;30.50;99.90;;;;;;5018094;28;20196;-73
2023/09/09 07:08:00;;;;;;;7.40;6.65;;;31.30;99.90;;;;;;5014945;28;20319;-72
2023/09/09 07:10:26;;;;;;;9.85;7.95;;;31.80;99.90;;;;;;5019231;28;20755;-72
2023/09/09 07:12:52;;;;;;;8.88;7.13;;;32.50;99.90;;;;;;5030395;28;20198;-72
2023/09/09 07:15:18;;;;;;;9.98;6.75;;;32.80;99.90;;;;;;5036248;28;20187;-72
2023/09/09 07:17:48;;;;;;;7.55;6.85;;;32.10;99.90;;;;;;5015545;28;20204;-72
2023/09/09 07:20:14;;;;;;;7.00;6.30;;;31.20;99.90;;;;;;5022786;28;20294;-72
2023/09/09 07:22:40;;;;;;;9.95;7.20;;;30.70;99.90;;;;;;5033855;28;20761;-72
2023/09/09 07:25:06;;;;;;;8.63;7.13;;;30.50;99.90;;;;;;5032561;28;20175;-70
2023/09/09 07:27:32;;;;;;;7.25;6.50;;;31.40;99.90;;;;;;5033736;28;20596;-71
2023/09/09 07:29:58;;;;;;;11.25;7.07;;;31.20;99.90;;;;;;5038656;28;20253;-72
2023/09/09 07:32:23;;;;;;;7.18;6.32;;;30.80;99.90;;;;;;5018928;28;20570;-72
2023/09/09 07:34:50;;;;;;;7.60;6.75;;;30.70;99.90;;;;;;5015709;28;20208;-72
2023/09/09 07:37:16;;;;;;;9.50;6.78;;;31.10;99.90;;;;;;5018764;28;20219;-72
2023/09/09 07:39:51;;;;;;;9.32;6.40;;;31.30;99.90;;;;;;5011968;28;20179;-70
2023/09/09 07:42:18;;;;;;;7.43;6.57;;;30.60;99.90;;;;;;5010349;28;20220;-72
2023/09/09 07:44:44;;;;;;;8.98;6.68;;;30.80;99.90;;;;;;5011609;28;20207;-72
2023/09/09 07:47:11;;;;;;;9.60;6.70;;;30.50;99.90;;;;;;5011921;28;20227;-72
2023/09/09 07:49:37;;;;;;;9.52;7.45;;;31.10;99.90;;;;;;5013410;28;20203;-72
2023/09/09 07:52:03;;;;;;;6.82;6.13;;;31.80;99.90;;;;;;5014466;28;20627;-72
2023/09/09 07:54:30;;;;;;;6.88;6.07;;;31.60;99.90;;;;;;5011802;28;20181;-72
2023/09/09 07:56:58;;;;;;;6.88;6.18;;;32.50;99.90;;;;;;5010696;28;20258;-71
2023/09/09 07:59:28;;;;;;;8.65;6.88;;;32.40;97.70;;;;;;5025802;28;20823;-73
2023/09/09 08:01:54;;;;;;;8.50;6.35;;;33.10;98.00;;;;;;5032263;28;20273;-72
2023/09/09 08:04:20;;;;;;;10.63;5.63;;;31.70;98.00;;;;;;5036089;28;20208;-71
2023/09/09 08:06:46;;;;;;;8.32;5.75;;;31.00;99.30;;;;;;5011870;28;20264;-72
2023/09/09 08:09:12;;;;;;;8.10;5.50;;;30.10;99.90;;;;;;5034602;28;20212;-71
2023/09/09 08:11:37;;;;;;;6.32;5.30;;;30.70;99.90;;;;;;5019273;28;20232;-72
2023/09/09 08:14:03;;;;;;;6.90;5.70;;;31.50;99.90;;;;;;5014580;28;20690;-72
2023/09/09 08:16:30;;;;;;;7.05;5.22;;;31.70;99.60;;;;;;5017221;28;20299;-72
2023/09/09 08:18:56;;;;;;;6.22;5.28;;;32.00;98.40;;;;;;5011088;28;20169;-72
2023/09/09 08:21:21;;;;;;;6.47;5.43;;;32.00;97.80;;;;;;5018266;28;20679;-71
2023/09/09 08:23:47;;;;;;;7.07;5.30;;;31.80;97.60;;;;;;5011667;28;20590;-72
2023/09/09 08:26:13;;;;;;;7.82;5.30;;;31.90;97.20;;;;;;5013574;28;20205;-71
2023/09/09 08:28:40;;;;;;;6.20;5.22;;;32.70;96.70;;;;;;5014061;28;20212;-72
2023/09/09 08:31:05;;;;;;;5.97;5.10;;;31.50;96.80;;;;;;5010575;28;20184;-70
2023/09/09 08:33:31;;;;;;;7.80;5.75;;;32.10;97.00;;;;;;5014886;28;20287;-72
2023/09/09 08:36:05;;;;;;;5.72;4.93;;;32.50;96.30;;;;;;5011271;28;20594;-72
2023/09/09 08:38:31;;;;;;;9.70;5.70;;;33.20;96.10;;;;;;5025666;28;20655;-73
2023/09/09 08:41:32;;;;;;;6.43;5.80;;;34.40;94.60;;;;;;5030738;28;20306;-72
2023/09/09 08:44:23;;;;;;;5.90;4.90;;;33.20;94.20;;;;;;5010531;28;20225;-72
2023/09/09 08:46:49;;;;;;;7.07;5.30;;;33.10;95.00;;;;;;5010969;28;20200;-72
2023/09/09 08:49:20;;;;;;;5.60;4.93;;;32.70;94.90;;;;;;5013682;28;20215;-72
2023/09/09 08:51:51;;;;;;;8.73;5.35;;;32.80;95.90;;;;;;5011418;28;20558;-71
2023/09/09 08:54:17;;;;;;;7.78;4.95;;;32.40;95.10;;;;;;5010616;28;20231;-71
2023/09/09 08:56:44;;;;;;;7.20;5.60;;;31.90;95.80;;;;;;5011092;28;20678;-72
2023/09/09 08:59:10;;;;;;;17.52;6.68;;;32.10;96.30;;;;;;5010423;28;20292;-72
2023/09/09 09:01:37;;;;;;;8.05;5.38;;;32.10;96.30;;;;;;5010136;28;20267;-72
2023/09/09 09:04:03;;;;;;;7.50;5.55;;;31.50;96.60;;;;;;5010538;28;20666;-71
2023/09/09 09:06:33;;;;;;;6.43;5.07;;;31.50;96.30;;;;;;5010088;28;20185;-69
2023/09/09 09:08:59;;;;;;;8.85;5.20;;;31.20;96.60;;;;;;5009047;28;20240;-71
2023/09/09 09:11:25;;;;;;;7.97;5.22;;;30.80;97.30;;;;;;5007278;28;20624;-72
2023/09/09 09:13:51;;;;;;;7.90;5.45;;;30.50;97.60;;;;;;5019416;28;20239;-72
2023/09/09 09:16:18;;;;;;;9.00;5.70;;;30.00;98.40;;;;;;5031030;28;20223;-71
2023/09/09 09:18:44;;;;;;;6.35;5.28;;;29.70;98.90;;;;;;5031345;28;20176;-72
2023/09/09 09:21:10;;;;;;;6.13;4.85;;;29.90;99.60;;;;;;5029938;28;20239;-72
2023/09/09 09:23:43;;;;;;;8.98;5.07;;;30.10;98.70;;;;;;5036451;28;20685;-72
2023/09/09 09:26:30;;;;;;;6.68;4.82;;;30.10;99.50;;;;;;5019385;28;20217;-71
2023/09/09 09:28:56;;;;;;;7.95;5.15;;;30.20;98.90;;;;;;5008703;28;20201;-72
2023/09/09 09:31:24;;;;;;;8.85;4.90;;;30.30;98.70;;;;;;5010880;28;20679;-72
2023/09/09 09:33:53;;;;;;;6.18;4.30;;;30.40;97.80;;;;;;5015054;28;20196;-72
2023/09/09 09:36:23;;;;;;;6.07;4.38;;;30.00;97.90;;;;;;5015754;28;20288;-71
2023/09/09 09:38:49;;;;;;;7.95;4.75;;;29.80;97.90;;;;;;5011684;28;20787;-72
2023/09/09 09:41:16;;;;;;;4.78;4.20;;;29.90;97.70;;;;;;5010847;28;20216;-73
2023/09/09 09:43:42;;;;;;;5.50;4.20;;;30.00;98.20;;;;;;5011643;28;20273;-72
2023/09/09 09:46:18;;;;;;;6.38;4.60;;;30.40;98.60;;;;;;5014153;28;20181;-72
2023/09/09 09:48:44;;;;;;;10.68;4.70;;;30.80;97.70;;;;;;5016610;28;20225;-72
2023/09/09 09:51:10;;;;;;;7.72;4.75;;;30.50;97.50;;;;;;5013448;28;20213;-72
2023/09/09 09:53:48;;;;;;;5.20;3.72;;;29.60;97.40;;;;;;5013430;28;20213;-72
2023/09/09 09:56:18;;;;;;;7.82;5.15;;;29.80;98.20;;;;;;5014582;28;20779;-72
2023/09/09 09:58:44;;;;;;;5.45;4.20;;;30.10;98.40;;;;;;5008134;28;20243;-72
2023/09/09 10:01:11;;;;;;;6.43;4.28;;;30.40;98.60;;;;;;5017122;28;20240;-72
2023/09/09 10:03:57;;;;;;;11.90;3.95;;;30.30;98.00;;;;;;5013533;28;20656;-72
2023/09/09 10:06:27;;;;;;;5.93;4.43;;;29.90;97.80;;;;;;5010941;28;20629;-72
2023/09/09 10:08:57;;;;;;;7.50;4.70;;;30.10;97.70;;;;;;5011957;28;20693;-72
2023/09/09 10:11:28;;;;;;;7.97;4.60;;;29.90;98.00;;;;;;5011805;28;20667;-73
2023/09/09 10:14:08;;;;;;;5.30;4.35;;;30.10;97.70;;;;;;5013296;28;20298;-72
2023/09/09 10:16:35;;;;;;;5.85;4.28;;;29.90;97.60;;;;;;5006614;28;20205;-72
2023/09/09 10:19:03;;;;;;;10.02;5.30;;;30.00;97.70;;;;;;5009184;28;20592;-72
2023/09/09 10:21:31;;;;;;;7.82;4.32;;;30.40;97.10;;;;;;5010954;28;20200;-72
2023/09/09 10:23:58;;;;;;;5.88;4.47;;;30.40;96.90;;;;;;5028034;28;20207;-72
2023/09/09 10:26:25;;;;;;;6.18;4.20;;;30.30;96.70;;;;;;5020250;28;20227;-72
2023/09/09 10:28:51;;;;;;;7.40;4.15;;;29.80;97.20;;;;;;5013821;28;20300;-72
2023/09/09 10:31:19;;;;;;;5.43;4.15;;;30.10;97.20;;;;;;5016379;28;20209;-71
2023/09/09 10:33:47;;;;;;;6.85;4.07;;;30.20;96.70;;;;;;5012734;28;20254;-72
2023/09/09 10:36:14;;;;;;;10.52;4.38;;;30.40;95.90;;;;;;5013213;28;20212;-72
2023/09/09 10:38:40;;;;;;;4.88;3.72;;;30.10;95.70;;;;;;5018977;28;20734;-72
2023/09/09 10:41:06;;;;;;;6.88;3.72;;;30.30;95.50;;;;;;5015328;28;20217;-70
2023/09/09 10:43:32;;;;;;;5.00;3.55;;;30.10;95.30;;;;;;5016967;28;20303;-73
2023/09/09 10:45:58;;;;;;;7.07;3.90;;;30.60;94.90;;;;;;5036437;28;20247;-71
2023/09/09 10:48:24;;;;;;;6.07;3.88;;;30.60;94.90;;;;;;5013379;28;20181;-74
2023/09/09 10:50:52;;;;;;;3.88;3.45;;;30.50;94.40;;;;;;5018671;28;20710;-72
2023/09/09 10:53:31;;;;;;;6.25;3.55;;;30.20;94.20;;;;;;5017127;28;21004;-72
2023/09/09 10:56:12;;;;;;;4.85;3.47;;;30.00;93.80;;;;;;5013707;28;20239;-72
2023/09/09 10:58:38;;;;;;;5.72;3.22;;;29.80;94.40;;;;;;5012660;28;20304;-72
2023/09/09 11:01:07;;;;;;;4.20;3.45;;;29.80;94.70;;;;;;5012949;28;20291;-71
2023/09/09 11:03:47;;;;;;;6.60;3.50;;;29.70;94.30;;;;;;5044029;28;20549;-73
2023/09/09 11:06:24;;;;;;;6.43;4.00;;;29.90;94.40;;;;;;5013230;28;20267;-72
2023/09/09 11:08:54;;;;;;;6.40;3.80;;;30.40;94.30;;;;;;5027193;28;20250;-72
2023/09/09 11:11:27;;;;;;;4.30;3.40;;;30.30;94.00;;;;;;5017052;28;20298;-72
2023/09/09 11:14:07;;;;;;;4.85;3.60;;;30.30;93.80;;;;;;5007261;28;20301;-71
2023/09/09 11:16:33;;;;;;;4.88;3.42;;;30.20;93.90;;;;;;5018256;28;20213;-72
2023/09/09 11:19:06;;;;;;;4.43;3.28;;;30.40;93.90;;;;;;5020068;28;20191;-73
2023/09/09 11:21:34;;;;;;;3.92;3.53;;;30.40;93.90;;;;;;5015378;28;20196;-71
2023/09/09 11:24:01;;;;;;;3.92;3.03;;;30.40;93.60;;;;;;5012230;28;20292;-73
2023/09/09 11:26:27;;;;;;;8.13;3.85;;;30.30;93.40;;;;;;5012602;28;20240;-73
2023/09/09 11:28:53;;;;;;;5.13;3.20;;;30.30;93.30;;;;;;5011264;28;20296;-72
2023/09/09 11:31:19;;;;;;;4.57;2.95;;;30.10;93.40;;;;;;5012605;28;20210;-72
2023/09/09 11:33:45;;;;;;;6.53;3.63;;;30.20;93.40;;;;;;5015764;28;20207;-73
2023/09/09 11:36:15;;;;;;;3.83;3.25;;;30.20;93.80;;;;;;5012474;28;20205;-73
2023/09/09 11:38:41;;;;;;;5.07;3.03;;;30.10;93.50;;;;;;5026721;28;20570;-72
2023/09/09 11:41:07;;;;;;;8.38;3.83;;;30.20;93.30;;;;;;5021253;28;20219;-72
2023/09/09 11:43:33;;;;;;;7.10;3.85;;;30.30;93.10;;;;;;5009973;28;20293;-72
2023/09/09 11:45:58;;;;;;;7.82;4.20;;;30.10;93.20;;;;;;5012826;28;20616;-73
2023/09/09 11:48:24;;;;;;;6.15;3.65;;;30.10;93.20;;;;;;5013793;28;20575;-72
2023/09/09 11:50:51;;;;;;;5.70;3.95;;;30.30;93.30;;;;;;5020970;28;20216;-73
2023/09/09 11:53:20;;;;;;;4.15;3.75;;;30.60;92.70;;;;;;5022271;28;20223;-72
2023/09/09 11:55:50;;;;;;;5.20;3.50;;;30.20;92.60;;;;;;5020465;28;20223;-73
2023/09/09 11:58:16;;;;;;;4.43;3.13;;;30.40;92.90;;;;;;5015044;28;20331;-71
2023/09/09 12:00:42;;;;;;;5.07;3.95;;;30.20;92.70;;;;;;5018860;28;20678;-73
2023/09/09 12:03:07;;;;;;;4.50;3.42;;;30.30;92.30;;;;;;5017634;28;20212;-72
2023/09/09 12:05:33;;;;;;;3.58;2.97;;;30.00;92.40;;;;;;5012842;28;20629;-71
2023/09/09 12:08:00;;;;;;;4.68;3.13;;;30.10;92.30;;;;;;5013464;28;20218;-72
2023/09/09 12:10:33;;;;;;;3.80;2.85;;;30.30;92.30;;;;;;5014533;28;20224;-73
2023/09/09 12:12:59;;;;;;;6.03;3.55;;;30.50;92.40;;;;;;5010064;28;20204;-72
2023/09/09 12:15:25;;;;;;;4.85;3.20;;;30.20;91.50;;;;;;5014090;28;20188;-73
2023/09/09 12:17:51;;;;;;;3.35;3.05;;;30.20;91.10;;;;;;5012226;28;20267;-73
2023/09/09 12:20:17;;;;;;;4.03;3.08;;;30.20;91.70;;;;;;5011493;28;20240;-73
2023/09/09 12:22:47;;;;;;;5.93;3.60;;;30.60;90.70;;;;;;5012059;28;20249;-73
2023/09/09 12:25:35;;;;;;;4.80;3.33;;;30.70;90.70;;;;;;5011207;28;20271;-72
2023/09/09 12:28:02;;;;;;;6.07;3.65;;;30.40;91.10;;;;;;5017814;28;20184;-72
2023/09/09 12:30:31;;;;;;;6.32;2.83;;;30.40;91.30;;;;;;5015916;28;20208;-72
2023/09/09 12:33:05;;;;;;;10.13;3.15;;;30.20;90.90;;;;;;5017668;28;20267;-74
2023/09/09 12:35:47;;;;;;;5.50;3.55;;;30.40;91.30;;;;;;5017828;28;20216;-72
2023/09/09 12:38:17;;;;;;;4.20;3.40;;;30.20;91.20;;;;;;5026992;28;20709;-73
2023/09/09 12:41:05;;;;;;;3.80;3.15;;;30.30;91.10;;;;;;5033746;28;20265;-73
2023/09/09 12:43:31;;;;;;;4.70;3.35;;;30.50;90.80;;;;;;5033112;28;20216;-72